ADDS METAR Data INFO
IDs: Format: Raw Decoded Include TAF

Data at: 1718 UTC 23 Oct 2017

KCID 231652Z 28012KT 10SM CLR 13/06 A2983 RMK AO2 SLP103 T01280061 $
KCID 231552Z COR 20007KT CLR 10SM 11/07 A2982 RMK AO2 SLP101 T01060072 $
KCID 231452Z 23007KT 10SM CLR 09/07 A2985 RMK AO2 SLP112 T00890072 58015 $
KCID 231352Z 19005KT 10SM CLR 08/06 A2986 RMK AO2 SLP114 T00780061 $
KCID 231252Z 18004KT 10SM CLR 06/05 A2990 RMK AO2 SLP127 T00560050
KCID 231152Z 15004KT 10SM CLR 05/04 A2990 RMK AO2 SLP128 T00500044 10061 20044 56022 $
KCID 231052Z 00000KT 10SM CLR 04/04 A2990 RMK AO2 SLP127 T00440044 $
KCID 230952Z 22003KT 10SM CLR 05/04 A2993 RMK AO2 SLP139 T00500039
KCID 230852Z AUTO 16004KT 9SM CLR 05/04 A2996 RMK AO2 SLP149 T00500044 56014
KCID 230752Z AUTO 18003KT 10SM CLR 06/06 A2998 RMK AO2 SLP155 T00560056
KCID 230652Z AUTO 14004KT 10SM CLR 06/05 A2998 RMK AO2 SLP156 T00560050
KCID 230552Z AUTO 13005KT 10SM CLR 04/04 A3001 RMK AO2 SLP164 T00440044 10100 20044 401390044 56013
KCID 230452Z AUTO 00000KT 10SM CLR 07/06 A3001 RMK AO2 SLP166 T00720061
KCID 230352Z 00000KT 10SM CLR 08/07 A3003 RMK AO2 SLP172 T00780067
KCID 230252Z 16003KT 10SM CLR 08/07 A3004 RMK AO2 SLP177 T00780072 58006
KCID 230152Z 18003KT 10SM CLR 09/08 A3005 RMK AO2 SLP178 T00940078
KCID 230052Z 14004KT 10SM CLR 09/08 A3006 RMK AO2 SLP182 T00940078
KCID 222352Z 00000KT 10SM CLR 10/08 A3006 RMK AO2 SLP182 T01000083 10133 20100 51006
KCID 222252Z 00000KT 10SM CLR 13/08 A3005 RMK AO2 SLP178 T01280078
KCID 222152Z 28003KT 10SM CLR 13/08 A3006 RMK AO2 SLP179 T01280078
KCID 222052Z 31006KT 10SM CLR 13/08 A3004 RMK AO2 SLP175 T01330078 51001
KCID 221952Z 33008KT 10SM CLR 13/08 A3004 RMK AO2 SLP174 T01280078
KCID 221852Z 32008KT 10SM OVC100 12/08 A3005 RMK AO2 SLP176 T01220083
KCID 221752Z 31009KT 10SM BKN095 OVC110 12/09 A3004 RMK AO2 SLP172 60000 T01220089 10122 20100 53008
KCID 221652Z 35008KT 10SM OVC090 12/09 A3003 RMK AO2 SLP168 T01170089
KCID 221552Z 34005KT 10SM OVC070 12/09 A3002 RMK AO2 SLP163 T01170089
KCID 221452Z 32008KT 10SM OVC055 11/09 A3002 RMK AO2 SLP162 60000 T01060094 53023
KCID 221352Z 32009KT 10SM OVC048 11/09 A2999 RMK AO2 RAE42 SLP152 P0000 T01060094
KCID 221252Z 31007KT 10SM -RA SCT050 OVC090 10/09 A2997 RMK AO2 RAB24 PRESRR SLP148 P0000 T01000089
KCID 221152Z 34010KT 10SM OVC100 10/09 A2995 RMK AO2 RAE39 SLP139 P0001 60021 70042 T01000094 10144 20100 51009
KCID 221052Z 33010KT 10SM -RA OVC100 11/09 A2995 RMK AO2 SLP138 P0001 T01060094
KCID 220952Z 32011KT 9SM -RA BKN035 OVC095 11/10 A2994 RMK AO2 SLP135 P0002 T01110100
KCID 220932Z AUTO 33011KT 10SM -RA BKN031 OVC038 11/10 A2992 RMK AO2 P0002 T01110100
KCID 220852Z AUTO 33011KT 9SM -RA FEW017 OVC026 11/11 A2992 RMK AO2 SLP129 P0006 60017 T01110106 51011
KCID 220752Z AUTO 31010KT 10SM -RA FEW011 BKN025 OVC110 12/12 A2992 RMK AO2 SLP127 P0003 T01220117
KCID 220652Z AUTO 31013KT 10SM -RA OVC021 13/12 A2990 RMK AO2 WSHFT 0545 SLP122 P0008 T01280117
KCID 220626Z AUTO 31014KT 8SM -RA SCT008 OVC019 13/12 A2989 RMK AO2 WSHFT 0545 P0005 T01280122
KCID 220559Z AUTO 31011KT 4SM RA BR SCT006 BKN010 OVC015 14/14 A2988 RMK AO2 WSHFT 0545 P0002 T01390139
KCID 220552Z AUTO 30013KT 3SM +RA BR BKN007 OVC012 14/14 A2988 RMK AO2 CIG 005V009 SLP115 P0018 60021 T01440139 10233 20144 402610144 51017